Sherwood, North Carolina
Current Conditions -  °F | °C
As of 8:35 AM on Tuesday 21 Oct 2014 (Local Time) from KTNB Reporting Station
Scattered Clouds Scattered Clouds  
Wind Chill: 48°   Ceiling: Unl
Heat Index: 50°   Visibility: 10mi
Dew Point: 47°   Wind: 6mph
Humidity: 90%   Direction: 270°W
Pressure: 29.98"   Gusts: NA
Location:  36.2779°N, 81.7843°W
Report Text: KTNB 211235Z AUTO 27005KT 10SM SCT013 10/08 A2998 RMK AO2 T00990083
Loading
Personal Weather Stations






























Interactive Weather Map
Tropical Storm Tracking
New forecast layout! Learn more

10-Day Weather Forecast

Advertisements
Track Severe Weather on mobile